createdAt,value
2022-11-05T00:02:01.058Z,7.65
2022-11-05T00:04:47.288Z,7.60
2022-11-05T00:07:33.342Z,7.57
2022-11-05T00:10:25.398Z,7.58
2022-11-05T00:13:13.163Z,7.67
2022-11-05T00:15:59.487Z,7.65
2022-11-05T00:18:27.255Z,7.57
2022-11-05T00:20:54.743Z,7.58
2022-11-05T00:23:41.188Z,7.49
2022-11-05T00:26:11.567Z,7.57
2022-11-05T00:28:44.079Z,7.57
2022-11-05T00:31:13.762Z,7.54
2022-11-05T00:33:43.136Z,7.66
2022-11-05T00:36:11.587Z,7.62
2022-11-05T00:38:39.096Z,7.59
2022-11-05T00:41:06.311Z,7.61
2022-11-05T00:43:52.267Z,7.40
2022-11-05T00:46:19.385Z,7.51
2022-11-05T00:49:05.487Z,7.56
2022-11-05T00:51:33.038Z,7.60
2022-11-05T00:54:03.443Z,7.62
2022-11-05T00:56:34.564Z,7.67
2022-11-05T00:59:02.613Z,7.63
2022-11-05T01:01:29.880Z,7.60
2022-11-05T01:03:57.391Z,7.57
2022-11-05T01:06:24.515Z,7.66
2022-11-05T01:08:52.032Z,7.61
2022-11-05T01:11:37.179Z,7.58
2022-11-05T01:14:13.458Z,7.53
2022-11-05T01:16:40.956Z,7.59
2022-11-05T01:19:10.319Z,7.56
2022-11-05T01:21:38.036Z,7.43
2022-11-05T01:24:05.811Z,7.57
2022-11-05T01:26:33.199Z,7.61
2022-11-05T01:29:00.920Z,7.61
2022-11-05T01:31:29.290Z,7.60
2022-11-05T01:33:56.852Z,7.56
2022-11-05T01:36:24.137Z,7.60
2022-11-05T01:38:52.215Z,7.59
2022-11-05T01:41:19.332Z,7.59
2022-11-05T01:43:51.422Z,7.62
2022-11-05T01:46:43.241Z,7.58
2022-11-05T01:49:14.510Z,7.52
2022-11-05T01:51:45.869Z,7.47
2022-11-05T01:54:17.511Z,7.62
2022-11-05T01:56:53.480Z,7.68
2022-11-05T01:59:37.881Z,7.84
2022-11-05T02:02:07.935Z,7.77
2022-11-05T02:04:43.167Z,7.83
2022-11-05T02:07:12.028Z,7.80
2022-11-05T02:09:48.266Z,7.75
2022-11-05T02:12:15.892Z,7.67
2022-11-05T02:14:43.382Z,7.76
2022-11-05T02:17:31.741Z,7.96
2022-11-05T02:20:29.882Z,7.87
2022-11-05T02:23:28.847Z,7.97
2022-11-05T02:26:08.396Z,8.02
2022-11-05T02:29:03.096Z,7.93
2022-11-05T02:31:36.863Z,7.96
2022-11-05T02:34:12.872Z,8.01
2022-11-05T02:36:49.993Z,7.89
2022-11-05T02:40:23.059Z,7.90
2022-11-05T02:42:56.340Z,8.08
2022-11-05T02:45:39.260Z,8.09
2022-11-05T02:48:37.322Z,8.04
2022-11-05T02:51:23.964Z,8.00
2022-11-05T02:53:58.731Z,8.00
2022-11-05T02:56:39.507Z,8.01
2022-11-05T02:59:07.153Z,7.91
2022-11-05T03:01:36.520Z,8.03
2022-11-05T03:04:08.471Z,8.06
2022-11-05T03:06:50.853Z,8.02
2022-11-05T03:09:27.639Z,7.93
2022-11-05T03:11:57.855Z,7.80
2022-11-05T03:14:33.131Z,7.81
2022-11-05T03:17:12.779Z,7.85
2022-11-05T03:19:50.073Z,7.94
2022-11-05T03:22:26.009Z,7.78
2022-11-05T03:24:57.660Z,7.98
2022-11-05T03:27:30.272Z,7.86
2022-11-05T03:30:05.272Z,7.73
2022-11-05T03:32:35.870Z,7.89
2022-11-05T03:35:10.889Z,7.79
2022-11-05T03:37:41.734Z,7.90
2022-11-05T03:40:15.158Z,7.91
2022-11-05T03:42:48.316Z,8.02
2022-11-05T03:45:20.822Z,7.93
2022-11-05T03:47:52.200Z,7.94
2022-11-05T03:50:45.471Z,8.02
2022-11-05T03:53:24.465Z,7.99
2022-11-05T03:56:03.529Z,8.00
2022-11-05T03:58:31.608Z,8.02
2022-11-05T04:01:02.549Z,8.11
2022-11-05T04:03:36.252Z,8.02
2022-11-05T04:06:25.745Z,8.06
2022-11-05T04:09:11.658Z,8.00
2022-11-05T04:11:58.113Z,8.09
2022-11-05T04:14:26.322Z,8.08
2022-11-05T04:17:09.934Z,7.99
2022-11-05T04:20:00.947Z,8.03
2022-11-05T04:22:49.114Z,8.05
2022-11-05T04:25:17.986Z,8.09
2022-11-05T04:27:46.212Z,8.03
2022-11-05T04:30:18.437Z,7.96
2022-11-05T04:33:05.440Z,8.04
2022-11-05T04:35:42.571Z,8.04
2022-11-05T04:38:12.663Z,7.95
2022-11-05T04:40:39.853Z,8.07
2022-11-05T04:43:14.908Z,8.05
2022-11-05T04:45:43.415Z,8.00
2022-11-05T04:48:11.969Z,8.05
2022-11-05T04:50:39.576Z,7.95
2022-11-05T04:53:07.036Z,7.97
2022-11-05T04:55:34.165Z,8.05
2022-11-05T04:58:01.655Z,8.00
2022-11-05T05:00:28.904Z,8.03
2022-11-05T05:02:56.437Z,7.93
2022-11-05T05:05:23.542Z,7.92
2022-11-05T05:07:50.992Z,7.95
2022-11-05T05:10:18.227Z,7.85
2022-11-05T05:12:45.716Z,7.77
2022-11-05T05:15:12.830Z,7.96
2022-11-05T05:17:40.317Z,7.99
2022-11-05T05:20:39.737Z,8.04
2022-11-05T05:23:07.237Z,7.92
2022-11-05T05:25:34.469Z,7.95
2022-11-05T05:28:02.562Z,7.97
2022-11-05T05:30:29.705Z,7.94
2022-11-05T05:32:57.082Z,8.01
2022-11-05T05:35:24.233Z,7.93
2022-11-05T05:37:56.111Z,7.91
2022-11-05T05:40:24.280Z,7.81
2022-11-05T05:42:55.811Z,7.83
2022-11-05T05:45:23.275Z,7.84
2022-11-05T05:47:50.848Z,7.79
2022-11-05T05:50:18.276Z,7.86
2022-11-05T05:52:53.052Z,7.68
2022-11-05T05:55:20.736Z,7.86
2022-11-05T05:57:48.406Z,7.79
2022-11-05T06:00:15.739Z,7.74
2022-11-05T06:02:43.691Z,7.81
2022-11-05T06:05:11.820Z,7.77
2022-11-05T06:07:39.551Z,7.89
2022-11-05T06:10:07.263Z,7.77
2022-11-05T06:12:35.027Z,7.86
2022-11-05T06:15:02.237Z,7.77
2022-11-05T06:17:29.670Z,7.87
2022-11-05T06:19:57.005Z,7.71
2022-11-05T06:22:24.886Z,7.68
2022-11-05T06:24:52.239Z,7.67
2022-11-05T06:27:19.936Z,7.70
2022-11-05T06:29:47.167Z,7.66
2022-11-05T06:32:14.734Z,7.55
2022-11-05T06:34:41.957Z,7.61
2022-11-05T06:37:09.506Z,7.58
2022-11-05T06:39:36.754Z,7.58
2022-11-05T06:42:17.756Z,7.60
2022-11-05T06:44:45.810Z,7.81
2022-11-05T06:47:13.384Z,7.75
2022-11-05T06:49:40.574Z,7.60
2022-11-05T06:52:08.109Z,7.72
2022-11-05T06:54:35.278Z,7.55
2022-11-05T06:57:04.511Z,7.66
2022-11-05T06:59:32.484Z,7.60
2022-11-05T07:02:00.021Z,7.63
2022-11-05T07:04:27.363Z,7.53
2022-11-05T07:06:54.981Z,7.63
2022-11-05T07:09:22.659Z,7.56
2022-11-05T07:11:50.273Z,7.69
2022-11-05T07:14:17.583Z,7.64
2022-11-05T07:16:45.153Z,7.63
2022-11-05T07:19:12.413Z,7.60
2022-11-05T07:21:40.018Z,7.70
2022-11-05T07:24:07.717Z,7.67
2022-11-05T07:26:35.202Z,7.58
2022-11-05T07:29:02.279Z,7.72
2022-11-05T07:31:29.860Z,7.91
2022-11-05T07:33:57.065Z,7.70
2022-11-05T07:36:25.395Z,7.77
2022-11-05T07:38:57.389Z,7.70
2022-11-05T07:41:28.078Z,7.70
2022-11-05T07:43:55.287Z,7.76
2022-11-05T07:46:23.018Z,7.93
2022-11-05T07:48:50.142Z,7.89
2022-11-05T07:51:18.337Z,7.86
2022-11-05T07:53:45.839Z,7.94
2022-11-05T07:56:13.529Z,7.93
2022-11-05T07:58:41.050Z,7.83
2022-11-05T08:01:08.716Z,7.91
2022-11-05T08:03:36.219Z,7.87
2022-11-05T08:06:03.881Z,7.82
2022-11-05T08:08:31.305Z,7.74
2022-11-05T08:11:06.745Z,7.86
2022-11-05T08:13:34.765Z,8.11
2022-11-05T08:16:03.336Z,8.00
2022-11-05T08:18:32.712Z,7.92
2022-11-05T08:21:02.920Z,7.93
2022-11-05T08:23:30.854Z,7.97
2022-11-05T08:25:58.896Z,8.19
2022-11-05T08:28:26.822Z,8.08
2022-11-05T08:30:56.856Z,8.13
2022-11-05T08:33:25.453Z,8.06
2022-11-05T08:35:53.270Z,8.11
2022-11-05T08:38:20.893Z,7.98
2022-11-05T08:40:58.613Z,8.13
2022-11-05T08:43:26.265Z,8.07
2022-11-05T08:45:55.082Z,8.05
2022-11-05T08:48:22.615Z,8.14
2022-11-05T08:50:50.688Z,8.07
2022-11-05T08:53:18.195Z,8.07
2022-11-05T08:55:47.804Z,8.24
2022-11-05T08:58:17.118Z,8.19
2022-11-05T09:00:48.096Z,8.32
2022-11-05T09:03:16.192Z,8.24
2022-11-05T09:05:44.376Z,8.32
2022-11-05T09:08:16.932Z,8.25
2022-11-05T09:10:45.885Z,8.35
2022-11-05T09:13:20.289Z,8.43
2022-11-05T09:15:50.066Z,8.51
2022-11-05T09:18:19.064Z,8.48
2022-11-05T09:20:47.258Z,8.52
2022-11-05T09:23:15.780Z,8.62
2022-11-05T09:25:44.466Z,8.43
2022-11-05T09:28:20.510Z,8.41
2022-11-05T09:30:50.884Z,8.49
2022-11-05T09:33:24.508Z,8.47
2022-11-05T09:35:53.720Z,8.43
2022-11-05T09:38:21.045Z,8.51
2022-11-05T09:40:59.445Z,8.58
2022-11-05T09:43:35.115Z,8.77
2022-11-05T09:46:12.145Z,8.69
2022-11-05T09:48:42.454Z,8.81
2022-11-05T09:51:19.262Z,8.76
2022-11-05T09:53:49.948Z,8.98
2022-11-05T09:56:30.137Z,9.01
2022-11-05T09:59:06.080Z,9.05
2022-11-05T10:01:38.002Z,9.02
2022-11-05T10:04:14.482Z,9.16
2022-11-05T10:06:49.246Z,9.29
2022-11-05T10:09:45.470Z,9.05
2022-11-05T10:12:45.302Z,9.02
2022-11-05T10:15:21.364Z,9.19
2022-11-05T10:17:59.371Z,9.17
2022-11-05T10:20:33.876Z,9.10
2022-11-05T10:23:18.866Z,9.08
2022-11-05T10:25:58.731Z,9.30
2022-11-05T10:28:27.867Z,9.36
2022-11-05T10:31:21.301Z,9.16
2022-11-05T10:33:54.890Z,9.26
2022-11-05T10:36:26.370Z,9.21
2022-11-05T10:38:59.178Z,9.15
2022-11-05T10:41:32.556Z,9.17
2022-11-05T10:44:18.788Z,9.25
2022-11-05T10:46:46.705Z,9.34
2022-11-05T10:49:18.932Z,9.50
2022-11-05T10:51:52.683Z,9.37
2022-11-05T10:54:23.074Z,9.46
2022-11-05T10:56:51.035Z,9.57
2022-11-05T10:59:28.010Z,9.51
2022-11-05T11:02:24.788Z,9.46
2022-11-05T11:04:54.163Z,9.46
2022-11-05T11:07:26.894Z,9.43
2022-11-05T11:09:55.070Z,9.58
2022-11-05T11:12:27.778Z,9.56
2022-11-05T11:15:02.295Z,9.49
2022-11-05T11:17:32.500Z,9.47
2022-11-05T11:20:24.352Z,9.57
2022-11-05T11:23:14.854Z,9.40
2022-11-05T11:25:46.677Z,9.34
2022-11-05T11:28:39.862Z,9.37
2022-11-05T11:31:23.058Z,9.55
2022-11-05T11:34:02.502Z,9.57
2022-11-05T11:36:46.363Z,9.54
2022-11-05T11:39:26.759Z,9.51
2022-11-05T11:41:58.626Z,9.60
2022-11-05T11:44:31.793Z,9.56
2022-11-05T11:47:10.576Z,9.52
2022-11-05T11:49:58.010Z,9.55
2022-11-05T11:52:31.662Z,9.54
2022-11-05T11:55:21.779Z,9.55
2022-11-05T11:57:53.522Z,9.59
2022-11-05T12:00:24.692Z,9.67
2022-11-05T12:03:20.212Z,9.57
2022-11-05T12:05:48.426Z,9.52
2022-11-05T12:08:25.423Z,9.58
2022-11-05T12:11:14.856Z,9.56
2022-11-05T12:13:52.770Z,9.62
2022-11-05T12:16:29.453Z,9.53
2022-11-05T12:19:12.960Z,9.50
2022-11-05T12:22:24.906Z,9.56
2022-11-05T12:24:52.864Z,9.58
2022-11-05T12:27:39.072Z,9.50
2022-11-05T12:30:21.981Z,9.64
2022-11-05T12:33:34.327Z,9.57
2022-11-05T12:36:20.689Z,9.54
2022-11-05T12:39:40.826Z,9.66
2022-11-05T12:42:31.804Z,9.64
2022-11-05T12:45:22.729Z,9.63
2022-11-05T12:48:06.859Z,9.82
2022-11-05T12:50:46.592Z,9.72
2022-11-05T12:53:29.660Z,9.72
2022-11-05T12:56:01.713Z,9.78
2022-11-05T12:58:37.203Z,9.74
2022-11-05T13:01:27.562Z,9.71
2022-11-05T13:04:06.913Z,9.71
2022-11-05T13:06:42.334Z,9.71
2022-11-05T13:09:13.149Z,9.73
2022-11-05T13:12:08.410Z,9.83
2022-11-05T13:14:51.355Z,9.80
2022-11-05T13:17:22.584Z,9.85
2022-11-05T13:20:06.075Z,10.04
2022-11-05T13:22:45.194Z,9.92
2022-11-05T13:25:29.070Z,9.88
2022-11-05T13:28:24.067Z,9.85
2022-11-05T13:30:55.155Z,9.85
2022-11-05T13:33:42.815Z,9.88
2022-11-05T13:36:38.926Z,9.91
2022-11-05T13:39:20.914Z,9.83
2022-11-05T13:42:07.276Z,9.80
2022-11-05T13:44:53.950Z,9.85
2022-11-05T13:47:21.627Z,9.72
2022-11-05T13:50:09.859Z,9.88
2022-11-05T13:52:56.300Z,9.70
2022-11-05T13:55:58.947Z,9.80
2022-11-05T13:58:54.443Z,9.84
2022-11-05T14:01:43.800Z,9.67
2022-11-05T14:04:33.368Z,9.78
2022-11-05T14:07:37.814Z,9.70
2022-11-05T14:10:28.852Z,9.68
2022-11-05T14:12:59.491Z,9.59
2022-11-05T14:15:30.143Z,9.65
2022-11-05T14:18:05.103Z,9.47
2022-11-05T14:20:32.759Z,9.72
2022-11-05T14:23:24.803Z,9.58
2022-11-05T14:26:11.641Z,9.65
2022-11-05T14:28:43.136Z,9.57
2022-11-05T14:31:16.788Z,9.60
2022-11-05T14:33:55.303Z,9.57
2022-11-05T14:36:30.397Z,9.63
2022-11-05T14:39:12.740Z,9.52
2022-11-05T14:42:18.019Z,9.50
2022-11-05T14:44:57.379Z,9.50
2022-11-05T14:47:28.747Z,9.49
2022-11-05T14:50:16.193Z,9.48
2022-11-05T14:52:53.061Z,9.40
2022-11-05T14:55:29.280Z,9.38
2022-11-05T14:57:57.055Z,9.42
2022-11-05T15:00:30.443Z,9.33
2022-11-05T15:03:01.559Z,9.36
2022-11-05T15:05:33.387Z,9.40
2022-11-05T15:08:26.529Z,9.32
2022-11-05T15:10:57.734Z,9.13
2022-11-05T15:13:51.583Z,9.19
2022-11-05T15:16:41.692Z,9.07
2022-11-05T15:19:20.547Z,8.89
2022-11-05T15:21:49.413Z,8.85
2022-11-05T15:24:19.334Z,8.60
2022-11-05T15:26:49.657Z,8.67
2022-11-05T15:29:21.739Z,8.70
2022-11-05T15:31:50.569Z,8.73
2022-11-05T15:34:32.530Z,8.74
2022-11-05T15:37:27.323Z,8.77
2022-11-05T15:39:55.735Z,8.68
2022-11-05T15:42:26.125Z,8.63
2022-11-05T15:45:00.193Z,8.56
2022-11-05T15:47:31.450Z,8.40
2022-11-05T15:50:03.420Z,8.35
2022-11-05T15:52:42.405Z,8.28
2022-11-05T15:55:13.035Z,8.25
2022-11-05T15:57:51.112Z,8.36
2022-11-05T16:00:28.269Z,8.39
2022-11-05T16:03:05.904Z,8.40
2022-11-05T16:05:36.213Z,8.39
2022-11-05T16:08:06.271Z,8.38
2022-11-05T16:10:39.024Z,8.40
2022-11-05T16:13:21.745Z,8.29
2022-11-05T16:15:54.985Z,8.35
2022-11-05T16:18:25.479Z,8.32
2022-11-05T16:21:06.806Z,8.36
2022-11-05T16:23:50.415Z,8.23
2022-11-05T16:29:29.512Z,8.34
2022-11-05T16:32:00.228Z,8.27
2022-11-05T16:34:38.006Z,8.31
2022-11-05T16:37:08.681Z,8.14
2022-11-05T16:39:36.395Z,8.14
2022-11-05T16:42:22.610Z,8.16
2022-11-05T16:44:52.126Z,8.10
2022-11-05T16:47:21.141Z,8.18
2022-11-05T16:49:49.925Z,8.05
2022-11-05T16:52:18.791Z,7.92
2022-11-05T16:54:46.602Z,7.92
2022-11-05T16:57:24.293Z,7.99
2022-11-05T16:59:52.996Z,7.87
2022-11-05T17:02:22.215Z,7.97
2022-11-05T17:04:49.796Z,7.98
2022-11-05T17:07:17.664Z,8.06
2022-11-05T17:09:45.509Z,7.95
2022-11-05T17:12:15.289Z,7.92
2022-11-05T17:14:43.752Z,7.96
2022-11-05T17:17:12.731Z,7.83
2022-11-05T17:19:46.961Z,7.74
2022-11-05T17:22:15.688Z,7.78
2022-11-05T17:24:44.066Z,7.82
2022-11-05T17:27:12.877Z,7.73
2022-11-05T17:29:40.885Z,7.83
2022-11-05T17:32:09.832Z,7.72
2022-11-05T17:34:37.928Z,7.74
2022-11-05T17:37:06.379Z,7.81
2022-11-05T17:39:34.860Z,7.70
2022-11-05T17:42:03.467Z,7.75
2022-11-05T17:44:32.286Z,7.75
2022-11-05T17:47:01.099Z,7.81
2022-11-05T17:49:29.443Z,7.80
2022-11-05T17:51:58.129Z,7.92
2022-11-05T17:54:25.835Z,7.94
2022-11-05T17:56:56.969Z,7.99
2022-11-05T17:59:25.125Z,7.99
2022-11-05T18:01:53.902Z,7.81
2022-11-05T18:04:22.426Z,7.92
2022-11-05T18:06:51.773Z,7.90
2022-11-05T18:09:20.047Z,7.95
2022-11-05T18:11:51.567Z,8.01
2022-11-05T18:14:23.846Z,7.90
2022-11-05T18:16:55.708Z,7.99
2022-11-05T18:19:23.793Z,7.93
2022-11-05T18:21:52.377Z,7.97
2022-11-05T18:24:20.277Z,7.94
2022-11-05T18:26:48.253Z,7.83
2022-11-05T18:29:15.774Z,7.84
2022-11-05T18:31:43.653Z,7.87
2022-11-05T18:34:11.814Z,7.85
2022-11-05T18:36:39.769Z,7.83
2022-11-05T18:39:08.673Z,7.77
2022-11-05T18:41:36.464Z,7.69
2022-11-05T18:44:04.865Z,7.57
2022-11-05T18:46:57.046Z,7.64
2022-11-05T18:49:22.121Z,7.59
2022-11-05T18:51:50.558Z,7.39
2022-11-05T18:54:18.783Z,7.34
2022-11-05T18:56:47.767Z,7.41
2022-11-05T19:02:08.251Z,7.26
2022-11-05T19:04:37.749Z,7.14
2022-11-05T19:07:08.039Z,7.09
2022-11-05T19:09:37.382Z,6.96
2022-11-05T19:12:07.458Z,6.97
2022-11-05T19:14:35.915Z,6.90
2022-11-05T19:17:04.950Z,6.86
2022-11-05T19:19:33.272Z,7.07
2022-11-05T19:22:01.441Z,6.95
2022-11-05T19:24:29.517Z,6.96
2022-11-05T19:26:57.557Z,6.85
2022-11-05T19:29:25.264Z,6.94
2022-11-05T19:31:53.614Z,6.71
2022-11-05T19:34:21.272Z,6.52
2022-11-05T19:36:49.718Z,6.59
2022-11-05T19:39:17.474Z,6.53
2022-11-05T19:41:45.381Z,6.49
2022-11-05T19:44:13.399Z,6.37
2022-11-05T19:46:41.658Z,6.25
2022-11-05T19:49:09.315Z,6.26
2022-11-05T19:51:37.932Z,6.20
2022-11-05T19:54:08.576Z,6.14
2022-11-05T19:56:38.587Z,6.16
2022-11-05T19:59:07.203Z,6.11
2022-11-05T20:01:35.782Z,6.07
2022-11-05T20:04:04.905Z,6.08
2022-11-05T20:06:39.187Z,6.10
2022-11-05T20:09:27.635Z,6.02
2022-11-05T20:11:56.728Z,6.04
2022-11-05T20:14:25.830Z,6.00
2022-11-05T20:16:54.785Z,5.98
2022-11-05T20:19:24.561Z,5.93
2022-11-05T20:21:52.464Z,5.92
2022-11-05T20:24:24.711Z,5.92
2022-11-05T20:26:57.411Z,5.91
2022-11-05T20:29:30.561Z,5.85
2022-11-05T20:32:02.569Z,5.83
2022-11-05T20:34:31.547Z,5.97
2022-11-05T20:36:59.794Z,5.80
2022-11-05T20:39:27.743Z,5.82
2022-11-05T20:41:56.995Z,5.78
2022-11-05T20:44:24.479Z,5.75
2022-11-05T20:46:52.538Z,5.69
2022-11-05T20:49:24.973Z,5.64
2022-11-05T20:51:54.086Z,5.66
2022-11-05T20:54:22.344Z,5.61
2022-11-05T20:56:50.608Z,5.62
2022-11-05T20:59:18.549Z,5.56
2022-11-05T21:01:46.694Z,5.55
2022-11-05T21:04:14.518Z,5.47
2022-11-05T21:06:42.418Z,5.49
2022-11-05T21:09:10.383Z,5.48
2022-11-05T21:11:56.897Z,5.40
2022-11-05T21:14:24.157Z,5.43
2022-11-05T21:16:52.198Z,5.47
2022-11-05T21:19:19.858Z,5.34
2022-11-05T21:21:47.933Z,5.37
2022-11-05T21:24:15.579Z,5.37
2022-11-05T21:26:43.609Z,5.32
2022-11-05T21:29:11.222Z,5.27
2022-11-05T21:31:38.920Z,5.30
2022-11-05T21:34:06.233Z,5.30
2022-11-05T21:36:34.453Z,5.26
2022-11-05T21:39:02.045Z,5.29
2022-11-05T21:41:29.821Z,5.27
2022-11-05T21:43:57.394Z,5.15
2022-11-05T21:46:26.094Z,5.12
2022-11-05T21:48:54.377Z,5.15
2022-11-05T21:51:41.482Z,5.10
2022-11-05T21:54:29.722Z,5.12
2022-11-05T21:57:16.678Z,5.19
2022-11-05T21:59:55.372Z,5.25
2022-11-05T22:02:25.521Z,5.18
2022-11-05T22:04:54.269Z,5.12
2022-11-05T22:07:26.601Z,5.16
2022-11-05T22:09:54.527Z,5.13
2022-11-05T22:12:24.565Z,5.13
2022-11-05T22:14:53.359Z,5.15
2022-11-05T22:17:21.948Z,5.10
2022-11-05T22:19:50.875Z,5.18
2022-11-05T22:22:19.416Z,5.04
2022-11-05T22:24:47.746Z,5.11
2022-11-05T22:27:18.614Z,5.15
2022-11-05T22:29:46.341Z,5.14
2022-11-05T22:32:14.421Z,5.13
2022-11-05T22:34:42.423Z,5.16
2022-11-05T22:37:12.489Z,5.09
2022-11-05T22:39:40.386Z,5.03
2022-11-05T22:42:08.877Z,4.98
2022-11-05T22:44:37.313Z,5.02
2022-11-05T22:47:05.731Z,4.99
2022-11-05T22:49:34.650Z,4.84
2022-11-05T22:52:03.400Z,4.98
2022-11-05T22:54:36.412Z,4.94
2022-11-05T22:57:06.633Z,5.03
2022-11-05T22:59:34.298Z,5.07
2022-11-05T23:02:08.204Z,5.07
2022-11-05T23:04:38.411Z,5.10
2022-11-05T23:07:27.896Z,4.99
2022-11-05T23:10:14.735Z,5.04
2022-11-05T23:12:44.822Z,4.96
2022-11-05T23:15:32.435Z,4.85
2022-11-05T23:18:19.235Z,4.81
2022-11-05T23:21:05.320Z,4.71
2022-11-05T23:23:51.958Z,4.65
2022-11-05T23:26:38.243Z,4.69
2022-11-05T23:29:05.962Z,4.63
2022-11-05T23:31:51.582Z,4.66
2022-11-05T23:34:19.178Z,4.61
2022-11-05T23:37:04.772Z,4.52
2022-11-05T23:39:33.448Z,4.63
2022-11-05T23:42:21.832Z,4.45
2022-11-05T23:45:11.731Z,4.45
2022-11-05T23:48:00.767Z,4.45
2022-11-05T23:50:33.217Z,4.45
2022-11-05T23:53:04.935Z,4.51
2022-11-05T23:55:32.788Z,4.30
2022-11-05T23:58:00.184Z,4.41
